sensor_id;sensor_type;location;lat;lon;timestamp;temperature;humidity
77056;SHT30;67471;44.918;8.614;2023-05-17T00:00:04;16.22;73.59
77056;SHT30;67471;44.918;8.614;2023-05-17T00:03:08;16.25;73.36
77056;SHT30;67471;44.918;8.614;2023-05-17T00:06:12;16.42;72.60
77056;SHT30;67471;44.918;8.614;2023-05-17T00:09:16;16.41;72.20
77056;SHT30;67471;44.918;8.614;2023-05-17T00:12:20;16.51;71.79
77056;SHT30;67471;44.918;8.614;2023-05-17T00:15:24;16.49;71.83
77056;SHT30;67471;44.918;8.614;2023-05-17T00:18:27;16.65;70.96
77056;SHT30;67471;44.918;8.614;2023-05-17T00:21:31;16.81;70.35
77056;SHT30;67471;44.918;8.614;2023-05-17T00:24:35;16.83;69.66
77056;SHT30;67471;44.918;8.614;2023-05-17T00:27:39;17.09;68.81
77056;SHT30;67471;44.918;8.614;2023-05-17T00:30:43;17.21;68.63
77056;SHT30;67471;44.918;8.614;2023-05-17T00:33:47;17.27;68.07
77056;SHT30;67471;44.918;8.614;2023-05-17T00:36:51;17.34;67.16
77056;SHT30;67471;44.918;8.614;2023-05-17T00:39:55;17.14;68.28
77056;SHT30;67471;44.918;8.614;2023-05-17T00:43:00;17.31;67.68
77056;SHT30;67471;44.918;8.614;2023-05-17T00:46:04;17.37;68.03
77056;SHT30;67471;44.918;8.614;2023-05-17T00:49:07;17.40;68.32
77056;SHT30;67471;44.918;8.614;2023-05-17T00:52:11;17.47;69.92
77056;SHT30;67471;44.918;8.614;2023-05-17T00:55:15;17.42;70.34
77056;SHT30;67471;44.918;8.614;2023-05-17T00:58:22;17.41;70.59
77056;SHT30;67471;44.918;8.614;2023-05-17T01:01:25;17.30;70.85
77056;SHT30;67471;44.918;8.614;2023-05-17T01:04:29;17.30;71.03
77056;SHT30;67471;44.918;8.614;2023-05-17T01:07:33;17.26;71.12
77056;SHT30;67471;44.918;8.614;2023-05-17T01:10:53;17.24;71.10
77056;SHT30;67471;44.918;8.614;2023-05-17T01:21:38;17.06;72.87
77056;SHT30;67471;44.918;8.614;2023-05-17T01:28:09;17.14;71.76
77056;SHT30;67471;44.918;8.614;2023-05-17T01:31:14;17.10;71.76
77056;SHT30;67471;44.918;8.614;2023-05-17T01:34:28;16.94;72.05
77056;SHT30;67471;44.918;8.614;2023-05-17T01:37:33;16.90;72.26
77056;SHT30;67471;44.918;8.614;2023-05-17T01:40:42;16.79;72.93
77056;SHT30;67471;44.918;8.614;2023-05-17T01:43:56;16.96;72.86
77056;SHT30;67471;44.918;8.614;2023-05-17T01:47:26;16.93;72.70
77056;SHT30;67471;44.918;8.614;2023-05-17T01:50:33;17.02;72.31
77056;SHT30;67471;44.918;8.614;2023-05-17T01:53:43;16.91;72.43
77056;SHT30;67471;44.918;8.614;2023-05-17T01:56:55;16.81;73.14
77056;SHT30;67471;44.918;8.614;2023-05-17T02:00:03;16.63;73.59
77056;SHT30;67471;44.918;8.614;2023-05-17T02:03:19;16.83;73.11
77056;SHT30;67471;44.918;8.614;2023-05-17T02:06:26;16.77;73.39
77056;SHT30;67471;44.918;8.614;2023-05-17T02:09:30;16.77;73.72
77056;SHT30;67471;44.918;8.614;2023-05-17T02:12:34;16.77;73.75
77056;SHT30;67471;44.918;8.614;2023-05-17T02:15:38;16.72;73.82
77056;SHT30;67471;44.918;8.614;2023-05-17T02:18:42;16.79;73.33
77056;SHT30;67471;44.918;8.614;2023-05-17T02:21:46;16.76;73.30
77056;SHT30;67471;44.918;8.614;2023-05-17T02:24:50;16.60;74.16
77056;SHT30;67471;44.918;8.614;2023-05-17T02:27:54;16.59;74.16
77056;SHT30;67471;44.918;8.614;2023-05-17T02:30:58;16.53;74.71
77056;SHT30;67471;44.918;8.614;2023-05-17T02:34:02;16.65;74.34
77056;SHT30;67471;44.918;8.614;2023-05-17T02:37:06;16.63;74.44
77056;SHT30;67471;44.918;8.614;2023-05-17T02:40:10;16.59;74.66
77056;SHT30;67471;44.918;8.614;2023-05-17T02:43:13;16.49;75.23
77056;SHT30;67471;44.918;8.614;2023-05-17T02:46:17;16.42;75.11
77056;SHT30;67471;44.918;8.614;2023-05-17T02:49:21;16.41;75.52
77056;SHT30;67471;44.918;8.614;2023-05-17T02:52:25;16.28;76.01
77056;SHT30;67471;44.918;8.614;2023-05-17T02:55:28;16.31;75.92
77056;SHT30;67471;44.918;8.614;2023-05-17T02:58:32;16.41;75.51
77056;SHT30;67471;44.918;8.614;2023-05-17T03:01:36;16.36;75.46
77056;SHT30;67471;44.918;8.614;2023-05-17T03:04:40;16.35;75.68
77056;SHT30;67471;44.918;8.614;2023-05-17T03:07:44;16.07;77.11
77056;SHT30;67471;44.918;8.614;2023-05-17T03:10:48;16.11;77.22
77056;SHT30;67471;44.918;8.614;2023-05-17T03:13:52;16.15;77.25
77056;SHT30;67471;44.918;8.614;2023-05-17T03:17:00;16.36;76.25
77056;SHT30;67471;44.918;8.614;2023-05-17T03:20:04;16.24;76.99
77056;SHT30;67471;44.918;8.614;2023-05-17T03:23:10;16.36;76.46
77056;SHT30;67471;44.918;8.614;2023-05-17T03:26:23;16.11;77.27
77056;SHT30;67471;44.918;8.614;2023-05-17T03:29:29;16.17;77.91
77056;SHT30;67471;44.918;8.614;2023-05-17T03:32:33;16.18;77.87
77056;SHT30;67471;44.918;8.614;2023-05-17T03:35:36;16.24;77.39
77056;SHT30;67471;44.918;8.614;2023-05-17T03:38:40;16.11;77.82
77056;SHT30;67471;44.918;8.614;2023-05-17T03:41:44;16.18;77.71
77056;SHT30;67471;44.918;8.614;2023-05-17T03:44:48;16.10;77.04
77056;SHT30;67471;44.918;8.614;2023-05-17T03:47:51;16.14;77.07
77056;SHT30;67471;44.918;8.614;2023-05-17T03:50:56;16.08;77.60
77056;SHT30;67471;44.918;8.614;2023-05-17T03:54:00;16.04;77.37
77056;SHT30;67471;44.918;8.614;2023-05-17T03:57:05;16.12;77.25
77056;SHT30;67471;44.918;8.614;2023-05-17T04:00:09;16.02;76.85
77056;SHT30;67471;44.918;8.614;2023-05-17T04:03:18;15.97;76.90
77056;SHT30;67471;44.918;8.614;2023-05-17T04:06:22;16.04;76.78
77056;SHT30;67471;44.918;8.614;2023-05-17T04:09:26;16.08;76.71
77056;SHT30;67471;44.918;8.614;2023-05-17T04:12:30;16.02;76.96
77056;SHT30;67471;44.918;8.614;2023-05-17T04:15:35;16.10;76.59
77056;SHT30;67471;44.918;8.614;2023-05-17T04:18:40;16.12;75.73
77056;SHT30;67471;44.918;8.614;2023-05-17T04:21:44;16.07;75.85
77056;SHT30;67471;44.918;8.614;2023-05-17T04:24:48;15.93;76.58
77056;SHT30;67471;44.918;8.614;2023-05-17T04:27:52;16.00;76.52
77056;SHT30;67471;44.918;8.614;2023-05-17T04:30:56;16.00;76.45
77056;SHT30;67471;44.918;8.614;2023-05-17T04:33:59;15.93;76.40
77056;SHT30;67471;44.918;8.614;2023-05-17T04:37:03;16.00;76.13
77056;SHT30;67471;44.918;8.614;2023-05-17T04:40:09;15.97;76.13
77056;SHT30;67471;44.918;8.614;2023-05-17T04:43:14;16.00;75.37
77056;SHT30;67471;44.918;8.614;2023-05-17T04:46:18;15.91;75.33
77056;SHT30;67471;44.918;8.614;2023-05-17T04:49:22;15.94;75.64
77056;SHT30;67471;44.918;8.614;2023-05-17T04:52:27;15.93;75.86
77056;SHT30;67471;44.918;8.614;2023-05-17T04:55:31;15.86;76.19
77056;SHT30;67471;44.918;8.614;2023-05-17T04:58:35;16.01;75.41
77056;SHT30;67471;44.918;8.614;2023-05-17T05:01:40;15.87;76.10
77056;SHT30;67471;44.918;8.614;2023-05-17T05:04:44;16.02;75.44
77056;SHT30;67471;44.918;8.614;2023-05-17T05:07:49;15.96;75.26
77056;SHT30;67471;44.918;8.614;2023-05-17T05:10:54;15.77;75.84
77056;SHT30;67471;44.918;8.614;2023-05-17T05:14:00;16.00;74.82
77056;SHT30;67471;44.918;8.614;2023-05-17T05:17:04;15.90;75.13
77056;SHT30;67471;44.918;8.614;2023-05-17T05:20:09;15.91;74.69
77056;SHT30;67471;44.918;8.614;2023-05-17T05:23:13;15.38;76.53
77056;SHT30;67471;44.918;8.614;2023-05-17T05:26:18;14.93;79.09
77056;SHT30;67471;44.918;8.614;2023-05-17T05:29:22;15.08;78.58
77056;SHT30;67471;44.918;8.614;2023-05-17T05:32:26;15.05;78.75
77056;SHT30;67471;44.918;8.614;2023-05-17T05:35:30;15.05;79.55
77056;SHT30;67471;44.918;8.614;2023-05-17T05:38:35;15.01;80.32
77056;SHT30;67471;44.918;8.614;2023-05-17T05:41:39;15.13;79.55
77056;SHT30;67471;44.918;8.614;2023-05-17T05:44:43;15.35;78.39
77056;SHT30;67471;44.918;8.614;2023-05-17T05:47:47;15.47;77.52
77056;SHT30;67471;44.918;8.614;2023-05-17T05:50:50;15.71;76.35
77056;SHT30;67471;44.918;8.614;2023-05-17T05:53:55;15.84;75.80
77056;SHT30;67471;44.918;8.614;2023-05-17T05:56:58;15.84;75.57
77056;SHT30;67471;44.918;8.614;2023-05-17T06:00:03;16.00;74.96
77056;SHT30;67471;44.918;8.614;2023-05-17T06:03:16;15.76;75.52
77056;SHT30;67471;44.918;8.614;2023-05-17T06:06:20;15.84;75.65
77056;SHT30;67471;44.918;8.614;2023-05-17T06:09:24;15.96;74.89
77056;SHT30;67471;44.918;8.614;2023-05-17T06:12:28;15.90;74.91
77056;SHT30;67471;44.918;8.614;2023-05-17T06:15:32;15.86;74.65
77056;SHT30;67471;44.918;8.614;2023-05-17T06:18:35;16.00;73.42
77056;SHT30;67471;44.918;8.614;2023-05-17T06:21:39;15.93;73.70
77056;SHT30;67471;44.918;8.614;2023-05-17T06:24:43;15.79;73.53
77056;SHT30;67471;44.918;8.614;2023-05-17T06:27:47;15.80;74.23
77056;SHT30;67471;44.918;8.614;2023-05-17T06:30:51;15.88;75.50
77056;SHT30;67471;44.918;8.614;2023-05-17T06:33:54;15.73;77.31
77056;SHT30;67471;44.918;8.614;2023-05-17T06:36:58;15.71;78.20
77056;SHT30;67471;44.918;8.614;2023-05-17T06:40:03;15.74;78.14
77056;SHT30;67471;44.918;8.614;2023-05-17T06:43:08;15.67;77.98
77056;SHT30;67471;44.918;8.614;2023-05-17T06:46:12;15.33;79.58
77056;SHT30;67471;44.918;8.614;2023-05-17T06:49:15;15.33;80.12
77056;SHT30;67471;44.918;8.614;2023-05-17T06:52:20;15.59;79.04
77056;SHT30;67471;44.918;8.614;2023-05-17T06:55:23;15.63;79.13
77056;SHT30;67471;44.918;8.614;2023-05-17T06:58:27;15.94;78.29
77056;SHT30;67471;44.918;8.614;2023-05-17T07:01:31;15.87;79.27
77056;SHT30;67471;44.918;8.614;2023-05-17T07:04:35;16.25;77.57
77056;SHT30;67471;44.918;8.614;2023-05-17T07:07:39;16.29;77.57
77056;SHT30;67471;44.918;8.614;2023-05-17T07:10:42;16.32;77.51
77056;SHT30;67471;44.918;8.614;2023-05-17T07:13:46;16.45;77.56
77056;SHT30;67471;44.918;8.614;2023-05-17T07:16:51;16.21;77.93
77056;SHT30;67471;44.918;8.614;2023-05-17T07:19:55;15.88;77.87
77056;SHT30;67471;44.918;8.614;2023-05-17T07:22:59;15.94;77.46
77056;SHT30;67471;44.918;8.614;2023-05-17T07:26:03;16.38;75.76
77056;SHT30;67471;44.918;8.614;2023-05-17T07:29:07;16.38;74.53
77056;SHT30;67471;44.918;8.614;2023-05-17T07:32:11;16.60;74.37
77056;SHT30;67471;44.918;8.614;2023-05-17T07:35:15;16.62;74.84
77056;SHT30;67471;44.918;8.614;2023-05-17T07:38:18;16.55;74.20
77056;SHT30;67471;44.918;8.614;2023-05-17T07:41:22;16.59;75.21
77056;SHT30;67471;44.918;8.614;2023-05-17T07:44:26;16.68;71.81
77056;SHT30;67471;44.918;8.614;2023-05-17T07:47:29;16.75;72.55
77056;SHT30;67471;44.918;8.614;2023-05-17T07:50:33;16.86;72.23
77056;SHT30;67471;44.918;8.614;2023-05-17T07:53:37;16.79;71.53
77056;SHT30;67471;44.918;8.614;2023-05-17T07:56:41;16.90;70.47
77056;SHT30;67471;44.918;8.614;2023-05-17T07:59:45;16.68;69.33
77056;SHT30;67471;44.918;8.614;2023-05-17T08:02:49;16.93;68.37
77056;SHT30;67471;44.918;8.614;2023-05-17T08:05:53;17.23;67.79
77056;SHT30;67471;44.918;8.614;2023-05-17T08:08:57;17.38;67.16
77056;SHT30;67471;44.918;8.614;2023-05-17T08:12:01;17.57;65.64
77056;SHT30;67471;44.918;8.614;2023-05-17T08:15:05;17.72;65.91
77056;SHT30;67471;44.918;8.614;2023-05-17T08:18:09;17.69;65.64
77056;SHT30;67471;44.918;8.614;2023-05-17T08:21:13;17.93;65.66
77056;SHT30;67471;44.918;8.614;2023-05-17T08:24:17;17.81;64.81
77056;SHT30;67471;44.918;8.614;2023-05-17T08:27:20;17.82;65.94
77056;SHT30;67471;44.918;8.614;2023-05-17T08:30:24;17.75;64.03
77056;SHT30;67471;44.918;8.614;2023-05-17T08:33:28;17.61;64.84
77056;SHT30;67471;44.918;8.614;2023-05-17T08:36:32;17.34;63.36
77056;SHT30;67471;44.918;8.614;2023-05-17T08:39:35;17.30;65.13
77056;SHT30;67471;44.918;8.614;2023-05-17T08:42:40;17.11;65.45
77056;SHT30;67471;44.918;8.614;2023-05-17T08:45:44;16.93;66.88
77056;SHT30;67471;44.918;8.614;2023-05-17T08:48:49;16.83;66.23
77056;SHT30;67471;44.918;8.614;2023-05-17T08:51:56;16.65;67.76
77056;SHT30;67471;44.918;8.614;2023-05-17T08:55:02;16.63;68.88
77056;SHT30;67471;44.918;8.614;2023-05-17T08:58:10;16.60;68.36
77056;SHT30;67471;44.918;8.614;2023-05-17T09:01:15;16.48;68.50
77056;SHT30;67471;44.918;8.614;2023-05-17T09:04:20;16.56;68.99
77056;SHT30;67471;44.918;8.614;2023-05-17T09:07:24;16.49;70.04
77056;SHT30;67471;44.918;8.614;2023-05-17T09:10:28;16.52;70.62
77056;SHT30;67471;44.918;8.614;2023-05-17T09:13:33;16.62;71.21
77056;SHT30;67471;44.918;8.614;2023-05-17T09:16:37;16.42;71.21
77056;SHT30;67471;44.918;8.614;2023-05-17T09:19:43;16.22;71.36
77056;SHT30;67471;44.918;8.614;2023-05-17T09:22:47;16.15;71.39
77056;SHT30;67471;44.918;8.614;2023-05-17T09:25:51;15.96;72.15
77056;SHT30;67471;44.918;8.614;2023-05-17T09:28:55;15.81;72.47
77056;SHT30;67471;44.918;8.614;2023-05-17T09:32:16;16.07;72.56
77056;SHT30;67471;44.918;8.614;2023-05-17T09:35:27;16.24;73.74
77056;SHT30;67471;44.918;8.614;2023-05-17T09:38:32;16.25;71.40
77056;SHT30;67471;44.918;8.614;2023-05-17T09:41:44;16.28;72.46
77056;SHT30;67471;44.918;8.614;2023-05-17T09:44:50;16.25;72.07
77056;SHT30;67471;44.918;8.614;2023-05-17T09:47:55;16.08;72.09
77056;SHT30;67471;44.918;8.614;2023-05-17T09:50:59;16.00;72.96
77056;SHT30;67471;44.918;8.614;2023-05-17T09:54:05;16.07;74.06
77056;SHT30;67471;44.918;8.614;2023-05-17T09:57:09;15.97;73.72
77056;SHT30;67471;44.918;8.614;2023-05-17T10:00:14;15.97;73.11
77056;SHT30;67471;44.918;8.614;2023-05-17T10:03:20;15.84;74.58
77056;SHT30;67471;44.918;8.614;2023-05-17T10:06:24;15.94;74.68
77056;SHT30;67471;44.918;8.614;2023-05-17T10:09:30;15.59;74.81
77056;SHT30;67471;44.918;8.614;2023-05-17T10:12:38;15.59;75.29
77056;SHT30;67471;44.918;8.614;2023-05-17T10:15:43;15.86;74.42
77056;SHT30;67471;44.918;8.614;2023-05-17T10:18:48;16.10;73.90
77056;SHT30;67471;44.918;8.614;2023-05-17T10:21:52;16.19;73.52
77056;SHT30;67471;44.918;8.614;2023-05-17T10:24:56;16.19;73.71
77056;SHT30;67471;44.918;8.614;2023-05-17T10:28:01;16.05;72.93
77056;SHT30;67471;44.918;8.614;2023-05-17T10:31:05;15.96;74.70
77056;SHT30;67471;44.918;8.614;2023-05-17T10:34:09;16.17;71.82
77056;SHT30;67471;44.918;8.614;2023-05-17T10:37:14;16.12;73.40
77056;SHT30;67471;44.918;8.614;2023-05-17T10:40:19;16.29;71.18
77056;SHT30;67471;44.918;8.614;2023-05-17T10:43:28;16.53;72.62
77056;SHT30;67471;44.918;8.614;2023-05-17T10:46:32;16.79;72.13
77056;SHT30;67471;44.918;8.614;2023-05-17T10:49:37;16.97;71.28
77056;SHT30;67471;44.918;8.614;2023-05-17T10:52:46;16.89;68.39
77056;SHT30;67471;44.918;8.614;2023-05-17T10:55:50;17.19;69.59
77056;SHT30;67471;44.918;8.614;2023-05-17T10:59:24;17.57;70.31
77056;SHT30;67471;44.918;8.614;2023-05-17T11:02:30;17.79;69.87
77056;SHT30;67471;44.918;8.614;2023-05-17T11:05:33;17.89;68.97
77056;SHT30;67471;44.918;8.614;2023-05-17T11:08:45;18.02;67.74
77056;SHT30;67471;44.918;8.614;2023-05-17T11:12:09;18.10;68.56
77056;SHT30;67471;44.918;8.614;2023-05-17T11:15:16;18.14;68.69
77056;SHT30;67471;44.918;8.614;2023-05-17T11:18:20;18.30;68.75
77056;SHT30;67471;44.918;8.614;2023-05-17T11:21:27;18.27;69.96
77056;SHT30;67471;44.918;8.614;2023-05-17T11:24:31;18.26;70.18
77056;SHT30;67471;44.918;8.614;2023-05-17T11:27:37;18.43;70.31
77056;SHT30;67471;44.918;8.614;2023-05-17T11:30:41;18.47;70.31
77056;SHT30;67471;44.918;8.614;2023-05-17T11:33:46;18.49;70.81
77056;SHT30;67471;44.918;8.614;2023-05-17T11:36:52;18.50;70.48
77056;SHT30;67471;44.918;8.614;2023-05-17T11:40:06;18.51;69.48
77056;SHT30;67471;44.918;8.614;2023-05-17T11:43:15;18.39;69.94
77056;SHT30;67471;44.918;8.614;2023-05-17T11:46:22;18.27;69.05
77056;SHT30;67471;44.918;8.614;2023-05-17T11:49:27;18.17;69.33
77056;SHT30;67471;44.918;8.614;2023-05-17T11:52:30;18.27;69.37
77056;SHT30;67471;44.918;8.614;2023-05-17T11:55:39;18.22;69.88
77056;SHT30;67471;44.918;8.614;2023-05-17T11:58:42;18.19;70.49
77056;SHT30;67471;44.918;8.614;2023-05-17T12:01:48;18.23;70.72
77056;SHT30;67471;44.918;8.614;2023-05-17T12:04:52;18.36;69.40
77056;SHT30;67471;44.918;8.614;2023-05-17T12:07:56;18.33;69.39
77056;SHT30;67471;44.918;8.614;2023-05-17T12:11:01;18.23;69.83
77056;SHT30;67471;44.918;8.614;2023-05-17T12:14:05;18.29;69.10
77056;SHT30;67471;44.918;8.614;2023-05-17T12:17:12;18.30;69.06
77056;SHT30;67471;44.918;8.614;2023-05-17T12:20:18;18.33;69.62
77056;SHT30;67471;44.918;8.614;2023-05-17T12:23:36;18.27;70.11
77056;SHT30;67471;44.918;8.614;2023-05-17T12:26:43;18.36;70.04
77056;SHT30;67471;44.918;8.614;2023-05-17T12:29:49;18.17;70.35
77056;SHT30;67471;44.918;8.614;2023-05-17T12:32:53;18.26;69.56
77056;SHT30;67471;44.918;8.614;2023-05-17T12:35:57;18.25;69.26
77056;SHT30;67471;44.918;8.614;2023-05-17T12:39:01;18.33;69.01
77056;SHT30;67471;44.918;8.614;2023-05-17T12:42:06;18.36;68.65
77056;SHT30;67471;44.918;8.614;2023-05-17T12:45:10;18.19;68.18
77056;SHT30;67471;44.918;8.614;2023-05-17T12:48:15;18.10;67.69
77056;SHT30;67471;44.918;8.614;2023-05-17T12:51:20;18.05;68.42
77056;SHT30;67471;44.918;8.614;2023-05-17T12:54:28;18.09;69.16
77056;SHT30;67471;44.918;8.614;2023-05-17T12:57:32;18.03;69.13
77056;SHT30;67471;44.918;8.614;2023-05-17T13:00:35;18.06;68.47
77056;SHT30;67471;44.918;8.614;2023-05-17T13:03:40;18.10;68.67
77056;SHT30;67471;44.918;8.614;2023-05-17T13:06:53;18.02;68.80
77056;SHT30;67471;44.918;8.614;2023-05-17T13:09:57;18.13;68.58
77056;SHT30;67471;44.918;8.614;2023-05-17T13:13:00;17.98;67.66
77056;SHT30;67471;44.918;8.614;2023-05-17T13:16:06;17.86;67.77
77056;SHT30;67471;44.918;8.614;2023-05-17T13:19:13;17.88;68.29
77056;SHT30;67471;44.918;8.614;2023-05-17T13:22:17;17.96;68.19
77056;SHT30;67471;44.918;8.614;2023-05-17T13:25:20;17.95;68.55
77056;SHT30;67471;44.918;8.614;2023-05-17T13:28:24;17.85;68.20
77056;SHT30;67471;44.918;8.614;2023-05-17T13:31:28;17.89;68.87
77056;SHT30;67471;44.918;8.614;2023-05-17T13:34:32;17.95;68.99
77056;SHT30;67471;44.918;8.614;2023-05-17T13:37:36;17.82;68.44
77056;SHT30;67471;44.918;8.614;2023-05-17T13:40:40;17.83;69.05
77056;SHT30;67471;44.918;8.614;2023-05-17T13:43:44;17.90;69.37
77056;SHT30;67471;44.918;8.614;2023-05-17T13:46:47;18.00;69.59
77056;SHT30;67471;44.918;8.614;2023-05-17T13:49:51;18.05;69.55
77056;SHT30;67471;44.918;8.614;2023-05-17T13:52:55;18.05;69.18
77056;SHT30;67471;44.918;8.614;2023-05-17T13:55:59;18.08;69.41
77056;SHT30;67471;44.918;8.614;2023-05-17T13:59:03;18.02;69.65
77056;SHT30;67471;44.918;8.614;2023-05-17T14:02:06;18.12;69.27
77056;SHT30;67471;44.918;8.614;2023-05-17T14:05:11;18.16;68.97
77056;SHT30;67471;44.918;8.614;2023-05-17T14:08:18;18.23;67.90
77056;SHT30;67471;44.918;8.614;2023-05-17T14:11:23;18.20;68.15
77056;SHT30;67471;44.918;8.614;2023-05-17T14:14:26;18.27;67.44
77056;SHT30;67471;44.918;8.614;2023-05-17T14:17:31;18.37;66.81
77056;SHT30;67471;44.918;8.614;2023-05-17T14:20:35;18.43;66.61
77056;SHT30;67471;44.918;8.614;2023-05-17T14:23:39;18.47;66.34
77056;SHT30;67471;44.918;8.614;2023-05-17T14:26:43;18.53;66.23
77056;SHT30;67471;44.918;8.614;2023-05-17T14:29:47;18.65;65.53
77056;SHT30;67471;44.918;8.614;2023-05-17T14:32:50;18.70;65.20
77056;SHT30;67471;44.918;8.614;2023-05-17T14:35:54;18.75;65.66
77056;SHT30;67471;44.918;8.614;2023-05-17T14:38:58;18.83;65.40
77056;SHT30;67471;44.918;8.614;2023-05-17T14:42:02;18.87;64.93
77056;SHT30;67471;44.918;8.614;2023-05-17T14:45:06;18.99;65.21
77056;SHT30;67471;44.918;8.614;2023-05-17T14:48:11;19.01;64.99
77056;SHT30;67471;44.918;8.614;2023-05-17T14:51:15;19.11;64.45
77056;SHT30;67471;44.918;8.614;2023-05-17T14:54:19;19.19;62.03
77056;SHT30;67471;44.918;8.614;2023-05-17T14:57:24;19.16;60.86
77056;SHT30;67471;44.918;8.614;2023-05-17T15:00:27;19.20;59.86
77056;SHT30;67471;44.918;8.614;2023-05-17T15:03:31;19.15;60.03
77056;SHT30;67471;44.918;8.614;2023-05-17T15:06:36;19.16;60.01
77056;SHT30;67471;44.918;8.614;2023-05-17T15:09:40;19.18;59.67
77056;SHT30;67471;44.918;8.614;2023-05-17T15:12:44;19.15;60.40
77056;SHT30;67471;44.918;8.614;2023-05-17T15:15:48;19.12;60.28
77056;SHT30;67471;44.918;8.614;2023-05-17T15:18:52;19.12;60.68
77056;SHT30;67471;44.918;8.614;2023-05-17T15:21:56;18.98;60.34
77056;SHT30;67471;44.918;8.614;2023-05-17T15:25:00;19.05;60.44
77056;SHT30;67471;44.918;8.614;2023-05-17T15:28:04;18.95;61.03
77056;SHT30;67471;44.918;8.614;2023-05-17T15:31:08;18.98;60.68
77056;SHT30;67471;44.918;8.614;2023-05-17T15:34:14;18.88;60.55
77056;SHT30;67471;44.918;8.614;2023-05-17T15:37:18;18.91;60.31
77056;SHT30;67471;44.918;8.614;2023-05-17T15:40:22;18.88;60.17
77056;SHT30;67471;44.918;8.614;2023-05-17T15:43:27;18.85;60.69
77056;SHT30;67471;44.918;8.614;2023-05-17T15:46:31;18.88;60.75
77056;SHT30;67471;44.918;8.614;2023-05-17T15:49:35;18.80;60.94
77056;SHT30;67471;44.918;8.614;2023-05-17T15:52:39;18.70;61.26
77056;SHT30;67471;44.918;8.614;2023-05-17T15:55:42;18.71;62.22
77056;SHT30;67471;44.918;8.614;2023-05-17T15:58:46;18.61;63.26
77056;SHT30;67471;44.918;8.614;2023-05-17T16:01:50;18.53;63.43
77056;SHT30;67471;44.918;8.614;2023-05-17T16:04:54;18.43;63.92
77056;SHT30;67471;44.918;8.614;2023-05-17T16:07:58;18.30;64.37
77056;SHT30;67471;44.918;8.614;2023-05-17T16:11:02;18.10;64.34
77056;SHT30;67471;44.918;8.614;2023-05-17T16:14:07;17.98;64.34
77056;SHT30;67471;44.918;8.614;2023-05-17T16:17:11;17.86;64.96
77056;SHT30;67471;44.918;8.614;2023-05-17T16:20:15;17.77;65.60
77056;SHT30;67471;44.918;8.614;2023-05-17T16:23:19;17.78;66.23
77056;SHT30;67471;44.918;8.614;2023-05-17T16:26:23;17.67;67.17
77056;SHT30;67471;44.918;8.614;2023-05-17T16:29:26;17.71;67.40
77056;SHT30;67471;44.918;8.614;2023-05-17T16:32:30;17.68;67.67
77056;SHT30;67471;44.918;8.614;2023-05-17T16:35:34;17.59;67.62
77056;SHT30;67471;44.918;8.614;2023-05-17T16:38:38;17.55;68.04
77056;SHT30;67471;44.918;8.614;2023-05-17T16:41:42;17.57;68.27
77056;SHT30;67471;44.918;8.614;2023-05-17T16:44:46;17.54;68.31
77056;SHT30;67471;44.918;8.614;2023-05-17T16:47:49;17.57;68.45
77056;SHT30;67471;44.918;8.614;2023-05-17T16:50:53;17.47;68.93
77056;SHT30;67471;44.918;8.614;2023-05-17T16:53:57;17.47;69.14
77056;SHT30;67471;44.918;8.614;2023-05-17T16:57:01;17.47;69.26
77056;SHT30;67471;44.918;8.614;2023-05-17T17:00:07;17.50;69.49
77056;SHT30;67471;44.918;8.614;2023-05-17T17:03:11;17.54;69.74
77056;SHT30;67471;44.918;8.614;2023-05-17T17:06:15;17.48;69.77
77056;SHT30;67471;44.918;8.614;2023-05-17T17:09:18;17.38;70.21
77056;SHT30;67471;44.918;8.614;2023-05-17T17:12:22;17.45;70.14
77056;SHT30;67471;44.918;8.614;2023-05-17T17:15:26;17.50;70.03
77056;SHT30;67471;44.918;8.614;2023-05-17T17:18:30;17.40;70.25
77056;SHT30;67471;44.918;8.614;2023-05-17T17:21:34;17.31;70.65
77056;SHT30;67471;44.918;8.614;2023-05-17T17:24:41;17.30;70.91
77056;SHT30;67471;44.918;8.614;2023-05-17T17:27:46;17.34;71.01
77056;SHT30;67471;44.918;8.614;2023-05-17T17:30:49;17.32;71.10
77056;SHT30;67471;44.918;8.614;2023-05-17T17:33:53;17.10;71.86
77056;SHT30;67471;44.918;8.614;2023-05-17T17:36:57;17.26;71.68
77056;SHT30;67471;44.918;8.614;2023-05-17T17:40:01;17.24;71.78
77056;SHT30;67471;44.918;8.614;2023-05-17T17:43:05;17.27;72.15
77056;SHT30;67471;44.918;8.614;2023-05-17T17:46:09;17.20;72.97
77056;SHT30;67471;44.918;8.614;2023-05-17T17:49:13;17.19;73.33
77056;SHT30;67471;44.918;8.614;2023-05-17T17:52:17;17.19;73.56
77056;SHT30;67471;44.918;8.614;2023-05-17T17:55:20;17.14;73.38
77056;SHT30;67471;44.918;8.614;2023-05-17T17:58:24;17.06;73.39
77056;SHT30;67471;44.918;8.614;2023-05-17T18:01:28;16.99;73.37
77056;SHT30;67471;44.918;8.614;2023-05-17T18:04:34;16.90;73.50
77056;SHT30;67471;44.918;8.614;2023-05-17T18:07:38;16.97;73.31
77056;SHT30;67471;44.918;8.614;2023-05-17T18:10:42;16.90;73.30
77056;SHT30;67471;44.918;8.614;2023-05-17T18:13:45;16.89;73.46
77056;SHT30;67471;44.918;8.614;2023-05-17T18:16:49;16.87;73.38
77056;SHT30;67471;44.918;8.614;2023-05-17T18:19:53;16.81;73.59
77056;SHT30;67471;44.918;8.614;2023-05-17T18:22:57;16.76;73.68
77056;SHT30;67471;44.918;8.614;2023-05-17T18:26:01;16.80;73.53
77056;SHT30;67471;44.918;8.614;2023-05-17T18:29:05;16.81;73.10
77056;SHT30;67471;44.918;8.614;2023-05-17T18:32:09;16.72;73.48
77056;SHT30;67471;44.918;8.614;2023-05-17T18:35:12;16.60;73.68
77056;SHT30;67471;44.918;8.614;2023-05-17T18:38:16;16.69;73.92
77056;SHT30;67471;44.918;8.614;2023-05-17T18:41:20;16.66;73.51
77056;SHT30;67471;44.918;8.614;2023-05-17T18:44:25;16.62;73.50
77056;SHT30;67471;44.918;8.614;2023-05-17T18:47:28;16.62;73.62
77056;SHT30;67471;44.918;8.614;2023-05-17T18:50:32;16.60;73.68
77056;SHT30;67471;44.918;8.614;2023-05-17T18:53:36;16.53;73.89
77056;SHT30;67471;44.918;8.614;2023-05-17T18:56:40;16.44;74.11
77056;SHT30;67471;44.918;8.614;2023-05-17T18:59:44;16.47;74.21
77056;SHT30;67471;44.918;8.614;2023-05-17T19:02:47;16.55;73.79
77056;SHT30;67471;44.918;8.614;2023-05-17T19:05:51;16.52;73.92
77056;SHT30;67471;44.918;8.614;2023-05-17T19:08:55;16.42;74.08
77056;SHT30;67471;44.918;8.614;2023-05-17T19:12:00;16.39;74.26
77056;SHT30;67471;44.918;8.614;2023-05-17T19:15:05;16.32;74.47
77056;SHT30;67471;44.918;8.614;2023-05-17T19:18:10;16.31;74.70
77056;SHT30;67471;44.918;8.614;2023-05-17T19:21:14;16.32;74.66
77056;SHT30;67471;44.918;8.614;2023-05-17T19:24:18;16.29;74.54
77056;SHT30;67471;44.918;8.614;2023-05-17T19:27:22;16.29;74.54
77056;SHT30;67471;44.918;8.614;2023-05-17T19:30:26;16.22;74.96
77056;SHT30;67471;44.918;8.614;2023-05-17T19:33:30;16.12;74.96
77056;SHT30;67471;44.918;8.614;2023-05-17T19:36:34;16.08;75.15